sensor_id;sensor_type;location;lat;lon;timestamp;temperature;humidity
6355;DHT22;3210;48.708;9.030;2023-06-26T00:01:37;17.70;1.00
6355;DHT22;3210;48.708;9.030;2023-06-26T00:04:05;17.60;1.00
6355;DHT22;3210;48.708;9.030;2023-06-26T00:06:32;17.50;1.00
6355;DHT22;3210;48.708;9.030;2023-06-26T00:08:58;17.50;1.00
6355;DHT22;3210;48.708;9.030;2023-06-26T00:11:25;17.50;1.00
6355;DHT22;3210;48.708;9.030;2023-06-26T00:13:53;17.60;1.00
6355;DHT22;3210;48.708;9.030;2023-06-26T00:16:21;17.60;1.00
6355;DHT22;3210;48.708;9.030;2023-06-26T00:18:47;17.60;1.00
6355;DHT22;3210;48.708;9.030;2023-06-26T00:21:14;17.60;1.00
6355;DHT22;3210;48.708;9.030;2023-06-26T00:23:41;17.50;1.00
6355;DHT22;3210;48.708;9.030;2023-06-26T00:26:08;17.40;1.00
6355;DHT22;3210;48.708;9.030;2023-06-26T00:28:35;17.30;1.00
6355;DHT22;3210;48.708;9.030;2023-06-26T00:31:02;17.30;1.00
6355;DHT22;3210;48.708;9.030;2023-06-26T00:33:30;17.30;1.00
6355;DHT22;3210;48.708;9.030;2023-06-26T00:35:57;17.20;1.00
6355;DHT22;3210;48.708;9.030;2023-06-26T00:38:24;17.30;1.00
6355;DHT22;3210;48.708;9.030;2023-06-26T00:40:51;17.30;1.00
6355;DHT22;3210;48.708;9.030;2023-06-26T00:43:17;17.20;1.00
6355;DHT22;3210;48.708;9.030;2023-06-26T00:45:44;17.20;1.00
6355;DHT22;3210;48.708;9.030;2023-06-26T00:48:11;17.10;1.00
6355;DHT22;3210;48.708;9.030;2023-06-26T00:50:40;17.10;1.00
6355;DHT22;3210;48.708;9.030;2023-06-26T00:53:09;17.10;1.00
6355;DHT22;3210;48.708;9.030;2023-06-26T00:55:36;17.10;1.00
6355;DHT22;3210;48.708;9.030;2023-06-26T00:58:03;17.10;1.00
6355;DHT22;3210;48.708;9.030;2023-06-26T01:00:30;17.10;1.00
6355;DHT22;3210;48.708;9.030;2023-06-26T01:02:56;17.10;1.00
6355;DHT22;3210;48.708;9.030;2023-06-26T01:05:24;17.00;1.00
6355;DHT22;3210;48.708;9.030;2023-06-26T01:07:53;17.00;1.00
6355;DHT22;3210;48.708;9.030;2023-06-26T01:10:21;17.00;1.00
6355;DHT22;3210;48.708;9.030;2023-06-26T01:12:48;16.90;1.00
6355;DHT22;3210;48.708;9.030;2023-06-26T01:15:15;16.90;1.00
6355;DHT22;3210;48.708;9.030;2023-06-26T01:17:42;16.90;1.00
6355;DHT22;3210;48.708;9.030;2023-06-26T01:20:13;16.80;1.00
6355;DHT22;3210;48.708;9.030;2023-06-26T01:22:52;16.70;1.00
6355;DHT22;3210;48.708;9.030;2023-06-26T01:25:31;16.70;1.00
6355;DHT22;3210;48.708;9.030;2023-06-26T01:28:06;16.70;1.00
6355;DHT22;3210;48.708;9.030;2023-06-26T01:30:34;16.60;1.00
6355;DHT22;3210;48.708;9.030;2023-06-26T01:33:02;16.60;1.00
6355;DHT22;3210;48.708;9.030;2023-06-26T01:35:29;16.70;1.00
6355;DHT22;3210;48.708;9.030;2023-06-26T01:38:11;16.60;1.00
6355;DHT22;3210;48.708;9.030;2023-06-26T01:40:38;16.60;1.00
6355;DHT22;3210;48.708;9.030;2023-06-26T01:43:11;16.50;1.00
6355;DHT22;3210;48.708;9.030;2023-06-26T01:45:40;16.60;1.00
6355;DHT22;3210;48.708;9.030;2023-06-26T01:48:10;16.60;1.00
6355;DHT22;3210;48.708;9.030;2023-06-26T01:50:39;16.60;1.00
6355;DHT22;3210;48.708;9.030;2023-06-26T01:53:10;16.60;1.00
6355;DHT22;3210;48.708;9.030;2023-06-26T01:55:40;16.60;1.00
6355;DHT22;3210;48.708;9.030;2023-06-26T01:58:10;16.50;1.00
6355;DHT22;3210;48.708;9.030;2023-06-26T02:00:37;16.50;1.00
6355;DHT22;3210;48.708;9.030;2023-06-26T02:03:04;16.50;1.00
6355;DHT22;3210;48.708;9.030;2023-06-26T02:05:32;16.40;1.00
6355;DHT22;3210;48.708;9.030;2023-06-26T02:07:58;16.30;1.00
6355;DHT22;3210;48.708;9.030;2023-06-26T02:10:26;16.30;1.00
6355;DHT22;3210;48.708;9.030;2023-06-26T02:12:53;16.30;1.00
6355;DHT22;3210;48.708;9.030;2023-06-26T02:15:21;16.30;1.00
6355;DHT22;3210;48.708;9.030;2023-06-26T02:17:48;16.30;1.00
6355;DHT22;3210;48.708;9.030;2023-06-26T02:20:15;16.30;1.00
6355;DHT22;3210;48.708;9.030;2023-06-26T02:22:42;16.20;1.00
6355;DHT22;3210;48.708;9.030;2023-06-26T02:25:09;16.30;1.00
6355;DHT22;3210;48.708;9.030;2023-06-26T02:27:37;16.20;1.00
6355;DHT22;3210;48.708;9.030;2023-06-26T02:30:05;16.10;1.00
6355;DHT22;3210;48.708;9.030;2023-06-26T02:32:33;16.10;1.00
6355;DHT22;3210;48.708;9.030;2023-06-26T02:35:00;16.10;1.00
6355;DHT22;3210;48.708;9.030;2023-06-26T02:37:27;16.20;1.00
6355;DHT22;3210;48.708;9.030;2023-06-26T02:39:54;16.10;1.00
6355;DHT22;3210;48.708;9.030;2023-06-26T02:42:21;16.10;1.00
6355;DHT22;3210;48.708;9.030;2023-06-26T02:44:47;16.00;1.00
6355;DHT22;3210;48.708;9.030;2023-06-26T02:47:14;16.00;1.00
6355;DHT22;3210;48.708;9.030;2023-06-26T02:49:42;16.10;1.00
6355;DHT22;3210;48.708;9.030;2023-06-26T02:52:09;16.10;1.00
6355;DHT22;3210;48.708;9.030;2023-06-26T02:54:36;16.00;1.00
6355;DHT22;3210;48.708;9.030;2023-06-26T02:57:03;16.00;1.00
6355;DHT22;3210;48.708;9.030;2023-06-26T02:59:30;16.00;1.00
6355;DHT22;3210;48.708;9.030;2023-06-26T03:01:56;15.90;1.00
6355;DHT22;3210;48.708;9.030;2023-06-26T03:04:23;15.90;1.00
6355;DHT22;3210;48.708;9.030;2023-06-26T03:06:51;15.80;1.00
6355;DHT22;3210;48.708;9.030;2023-06-26T03:09:18;15.90;1.00
6355;DHT22;3210;48.708;9.030;2023-06-26T03:11:45;15.90;1.00
6355;DHT22;3210;48.708;9.030;2023-06-26T03:14:11;15.90;1.00
6355;DHT22;3210;48.708;9.030;2023-06-26T03:16:38;15.90;1.00
6355;DHT22;3210;48.708;9.030;2023-06-26T03:19:05;15.90;1.00
6355;DHT22;3210;48.708;9.030;2023-06-26T03:21:32;15.80;1.00
6355;DHT22;3210;48.708;9.030;2023-06-26T03:24:00;15.80;1.00
6355;DHT22;3210;48.708;9.030;2023-06-26T03:26:27;15.80;1.00
6355;DHT22;3210;48.708;9.030;2023-06-26T03:28:54;15.70;1.00
6355;DHT22;3210;48.708;9.030;2023-06-26T03:31:20;15.70;1.00
6355;DHT22;3210;48.708;9.030;2023-06-26T03:33:47;15.70;1.00
6355;DHT22;3210;48.708;9.030;2023-06-26T03:36:14;15.70;1.00
6355;DHT22;3210;48.708;9.030;2023-06-26T03:38:41;15.70;1.00
6355;DHT22;3210;48.708;9.030;2023-06-26T03:41:09;15.70;1.00
6355;DHT22;3210;48.708;9.030;2023-06-26T03:43:36;15.70;1.00
6355;DHT22;3210;48.708;9.030;2023-06-26T03:46:03;15.70;1.00
6355;DHT22;3210;48.708;9.030;2023-06-26T03:48:29;15.80;1.00
6355;DHT22;3210;48.708;9.030;2023-06-26T03:50:56;15.70;1.00
6355;DHT22;3210;48.708;9.030;2023-06-26T03:53:23;15.70;1.00
6355;DHT22;3210;48.708;9.030;2023-06-26T03:55:50;15.80;1.00
6355;DHT22;3210;48.708;9.030;2023-06-26T03:58:18;15.80;1.00
6355;DHT22;3210;48.708;9.030;2023-06-26T04:00:45;15.80;1.00
6355;DHT22;3210;48.708;9.030;2023-06-26T04:03:12;15.90;1.00
6355;DHT22;3210;48.708;9.030;2023-06-26T04:05:39;16.00;1.00
6355;DHT22;3210;48.708;9.030;2023-06-26T04:08:06;16.00;1.00
6355;DHT22;3210;48.708;9.030;2023-06-26T04:10:33;15.90;1.00
6355;DHT22;3210;48.708;9.030;2023-06-26T04:13:01;15.90;1.00
6355;DHT22;3210;48.708;9.030;2023-06-26T04:15:29;16.00;1.00
6355;DHT22;3210;48.708;9.030;2023-06-26T04:17:56;16.10;1.00
6355;DHT22;3210;48.708;9.030;2023-06-26T04:20:23;16.10;1.00
6355;DHT22;3210;48.708;9.030;2023-06-26T04:22:49;16.10;1.00
6355;DHT22;3210;48.708;9.030;2023-06-26T04:25:16;16.20;1.00
6355;DHT22;3210;48.708;9.030;2023-06-26T04:27:43;16.30;1.00
6355;DHT22;3210;48.708;9.030;2023-06-26T04:30:11;16.40;1.00
6355;DHT22;3210;48.708;9.030;2023-06-26T04:32:39;16.40;1.00
6355;DHT22;3210;48.708;9.030;2023-06-26T04:35:06;16.50;1.00
6355;DHT22;3210;48.708;9.030;2023-06-26T04:37:35;16.50;1.00
6355;DHT22;3210;48.708;9.030;2023-06-26T04:40:02;16.50;1.00
6355;DHT22;3210;48.708;9.030;2023-06-26T04:42:30;16.60;1.00
6355;DHT22;3210;48.708;9.030;2023-06-26T04:44:57;16.70;1.00
6355;DHT22;3210;48.708;9.030;2023-06-26T04:47:24;16.80;1.00
6355;DHT22;3210;48.708;9.030;2023-06-26T04:49:52;17.00;1.00
6355;DHT22;3210;48.708;9.030;2023-06-26T04:52:20;17.00;1.00
6355;DHT22;3210;48.708;9.030;2023-06-26T04:54:47;17.00;1.00
6355;DHT22;3210;48.708;9.030;2023-06-26T04:57:14;17.20;1.00
6355;DHT22;3210;48.708;9.030;2023-06-26T04:59:43;17.30;1.00
6355;DHT22;3210;48.708;9.030;2023-06-26T05:02:10;17.50;1.00
6355;DHT22;3210;48.708;9.030;2023-06-26T05:04:38;17.50;1.00
6355;DHT22;3210;48.708;9.030;2023-06-26T05:07:09;17.70;1.00
6355;DHT22;3210;48.708;9.030;2023-06-26T05:09:35;17.80;1.00
6355;DHT22;3210;48.708;9.030;2023-06-26T05:12:03;18.00;1.00
6355;DHT22;3210;48.708;9.030;2023-06-26T05:14:29;18.10;1.00
6355;DHT22;3210;48.708;9.030;2023-06-26T05:16:56;18.20;1.00
6355;DHT22;3210;48.708;9.030;2023-06-26T05:19:23;18.40;1.00
6355;DHT22;3210;48.708;9.030;2023-06-26T05:21:50;18.60;1.00
6355;DHT22;3210;48.708;9.030;2023-06-26T05:24:19;18.80;1.00
6355;DHT22;3210;48.708;9.030;2023-06-26T05:26:46;18.90;1.00
6355;DHT22;3210;48.708;9.030;2023-06-26T05:29:14;19.00;1.00
6355;DHT22;3210;48.708;9.030;2023-06-26T05:31:41;19.20;1.00
6355;DHT22;3210;48.708;9.030;2023-06-26T05:34:10;19.20;1.00
6355;DHT22;3210;48.708;9.030;2023-06-26T05:36:38;19.40;1.00
6355;DHT22;3210;48.708;9.030;2023-06-26T05:39:08;19.50;1.00
6355;DHT22;3210;48.708;9.030;2023-06-26T05:41:37;19.70;1.00
6355;DHT22;3210;48.708;9.030;2023-06-26T05:44:04;19.90;1.00
6355;DHT22;3210;48.708;9.030;2023-06-26T05:46:30;20.10;1.00
6355;DHT22;3210;48.708;9.030;2023-06-26T05:48:57;20.20;1.00
6355;DHT22;3210;48.708;9.030;2023-06-26T05:51:24;20.40;1.00
6355;DHT22;3210;48.708;9.030;2023-06-26T05:53:52;20.60;1.00
6355;DHT22;3210;48.708;9.030;2023-06-26T05:56:19;20.60;1.00
6355;DHT22;3210;48.708;9.030;2023-06-26T05:58:48;20.90;1.00
6355;DHT22;3210;48.708;9.030;2023-06-26T06:01:15;21.10;1.00
6355;DHT22;3210;48.708;9.030;2023-06-26T06:03:42;21.30;1.00
6355;DHT22;3210;48.708;9.030;2023-06-26T06:06:08;21.80;1.00
6355;DHT22;3210;48.708;9.030;2023-06-26T06:08:35;22.20;1.00
6355;DHT22;3210;48.708;9.030;2023-06-26T06:11:02;22.40;1.00
6355;DHT22;3210;48.708;9.030;2023-06-26T06:13:29;22.70;1.00
6355;DHT22;3210;48.708;9.030;2023-06-26T06:15:57;23.00;1.00
6355;DHT22;3210;48.708;9.030;2023-06-26T06:18:24;23.30;1.00
6355;DHT22;3210;48.708;9.030;2023-06-26T06:20:50;23.50;1.00
6355;DHT22;3210;48.708;9.030;2023-06-26T06:23:17;23.80;1.00
6355;DHT22;3210;48.708;9.030;2023-06-26T06:25:44;24.10;1.00
6355;DHT22;3210;48.708;9.030;2023-06-26T06:28:11;24.30;1.00
6355;DHT22;3210;48.708;9.030;2023-06-26T06:30:38;24.50;1.00
6355;DHT22;3210;48.708;9.030;2023-06-26T06:33:06;24.60;1.00
6355;DHT22;3210;48.708;9.030;2023-06-26T06:35:32;24.60;1.00
6355;DHT22;3210;48.708;9.030;2023-06-26T06:37:59;24.50;1.00
6355;DHT22;3210;48.708;9.030;2023-06-26T06:40:26;24.70;1.00
6355;DHT22;3210;48.708;9.030;2023-06-26T06:42:53;24.80;1.00
6355;DHT22;3210;48.708;9.030;2023-06-26T06:45:20;24.90;1.00
6355;DHT22;3210;48.708;9.030;2023-06-26T06:47:47;24.90;1.00
6355;DHT22;3210;48.708;9.030;2023-06-26T06:50:15;25.00;1.00
6355;DHT22;3210;48.708;9.030;2023-06-26T06:52:43;25.00;1.00
6355;DHT22;3210;48.708;9.030;2023-06-26T06:55:10;25.10;1.00
6355;DHT22;3210;48.708;9.030;2023-06-26T06:57:38;25.20;1.00
6355;DHT22;3210;48.708;9.030;2023-06-26T07:00:06;25.20;1.00
6355;DHT22;3210;48.708;9.030;2023-06-26T07:02:34;25.40;1.00
6355;DHT22;3210;48.708;9.030;2023-06-26T07:05:01;25.50;1.00
6355;DHT22;3210;48.708;9.030;2023-06-26T07:07:32;25.60;1.00
6355;DHT22;3210;48.708;9.030;2023-06-26T07:09:59;25.80;1.00
6355;DHT22;3210;48.708;9.030;2023-06-26T07:12:26;25.90;1.00
6355;DHT22;3210;48.708;9.030;2023-06-26T07:14:54;26.20;1.00
6355;DHT22;3210;48.708;9.030;2023-06-26T07:17:21;26.30;1.00
6355;DHT22;3210;48.708;9.030;2023-06-26T07:19:48;26.50;1.00
6355;DHT22;3210;48.708;9.030;2023-06-26T07:22:16;26.80;1.00
6355;DHT22;3210;48.708;9.030;2023-06-26T07:24:45;27.00;1.00
6355;DHT22;3210;48.708;9.030;2023-06-26T07:27:12;27.10;1.00
6355;DHT22;3210;48.708;9.030;2023-06-26T07:29:39;27.50;1.00
6355;DHT22;3210;48.708;9.030;2023-06-26T07:32:06;27.40;1.00
6355;DHT22;3210;48.708;9.030;2023-06-26T07:34:33;27.70;1.00
6355;DHT22;3210;48.708;9.030;2023-06-26T07:37:00;27.90;1.00
6355;DHT22;3210;48.708;9.030;2023-06-26T07:39:27;28.10;1.00
6355;DHT22;3210;48.708;9.030;2023-06-26T07:41:55;28.30;1.00
6355;DHT22;3210;48.708;9.030;2023-06-26T07:44:23;28.30;1.00
6355;DHT22;3210;48.708;9.030;2023-06-26T07:46:50;28.40;1.00
6355;DHT22;3210;48.708;9.030;2023-06-26T07:49:17;28.50;1.00
6355;DHT22;3210;48.708;9.030;2023-06-26T07:51:44;28.50;1.00
6355;DHT22;3210;48.708;9.030;2023-06-26T07:54:11;28.50;1.00
6355;DHT22;3210;48.708;9.030;2023-06-26T07:56:53;28.60;1.00
6355;DHT22;3210;48.708;9.030;2023-06-26T07:59:21;28.60;1.00
6355;DHT22;3210;48.708;9.030;2023-06-26T08:01:49;28.70;1.00
6355;DHT22;3210;48.708;9.030;2023-06-26T08:04:17;28.80;1.00
6355;DHT22;3210;48.708;9.030;2023-06-26T08:06:44;28.80;1.00
6355;DHT22;3210;48.708;9.030;2023-06-26T08:09:11;28.90;1.00
6355;DHT22;3210;48.708;9.030;2023-06-26T08:11:38;29.10;1.00
6355;DHT22;3210;48.708;9.030;2023-06-26T08:14:05;29.20;1.00
6355;DHT22;3210;48.708;9.030;2023-06-26T08:16:33;29.20;1.00
6355;DHT22;3210;48.708;9.030;2023-06-26T08:19:00;29.10;1.00
6355;DHT22;3210;48.708;9.030;2023-06-26T08:21:26;29.20;1.00
6355;DHT22;3210;48.708;9.030;2023-06-26T08:23:53;29.40;1.00
6355;DHT22;3210;48.708;9.030;2023-06-26T08:26:20;29.50;1.00
6355;DHT22;3210;48.708;9.030;2023-06-26T08:28:47;29.80;1.00
6355;DHT22;3210;48.708;9.030;2023-06-26T08:31:14;29.90;1.00
6355;DHT22;3210;48.708;9.030;2023-06-26T08:33:42;30.10;1.00
6355;DHT22;3210;48.708;9.030;2023-06-26T08:36:09;30.20;1.00
6355;DHT22;3210;48.708;9.030;2023-06-26T08:38:36;30.20;1.00
6355;DHT22;3210;48.708;9.030;2023-06-26T08:41:03;30.30;1.00
6355;DHT22;3210;48.708;9.030;2023-06-26T08:43:30;30.20;1.00
6355;DHT22;3210;48.708;9.030;2023-06-26T08:45:57;29.90;1.00
6355;DHT22;3210;48.708;9.030;2023-06-26T08:48:24;29.90;1.00
6355;DHT22;3210;48.708;9.030;2023-06-26T08:50:54;29.80;1.00
6355;DHT22;3210;48.708;9.030;2023-06-26T08:53:29;30.00;1.00
6355;DHT22;3210;48.708;9.030;2023-06-26T08:55:58;29.90;1.00
6355;DHT22;3210;48.708;9.030;2023-06-26T08:58:25;29.90;1.00
6355;DHT22;3210;48.708;9.030;2023-06-26T09:00:53;30.00;1.00
6355;DHT22;3210;48.708;9.030;2023-06-26T09:03:21;29.80;1.00
6355;DHT22;3210;48.708;9.030;2023-06-26T09:05:50;29.50;1.00
6355;DHT22;3210;48.708;9.030;2023-06-26T09:08:18;30.00;1.00
6355;DHT22;3210;48.708;9.030;2023-06-26T09:10:45;30.00;1.00
6355;DHT22;3210;48.708;9.030;2023-06-26T09:13:13;30.40;1.00
6355;DHT22;3210;48.708;9.030;2023-06-26T09:15:42;30.70;1.00
6355;DHT22;3210;48.708;9.030;2023-06-26T09:18:09;31.10;1.00
6355;DHT22;3210;48.708;9.030;2023-06-26T09:20:36;31.30;99.90
6355;DHT22;3210;48.708;9.030;2023-06-26T09:23:03;31.30;99.90
6355;DHT22;3210;48.708;9.030;2023-06-26T09:25:32;31.30;99.90
6355;DHT22;3210;48.708;9.030;2023-06-26T09:27:59;31.50;99.90
6355;DHT22;3210;48.708;9.030;2023-06-26T09:30:26;31.70;99.90
6355;DHT22;3210;48.708;9.030;2023-06-26T09:32:52;31.70;99.90
6355;DHT22;3210;48.708;9.030;2023-06-26T09:35:20;31.70;99.90
6355;DHT22;3210;48.708;9.030;2023-06-26T09:37:47;32.00;99.90
6355;DHT22;3210;48.708;9.030;2023-06-26T09:40:14;32.20;99.90
6355;DHT22;3210;48.708;9.030;2023-06-26T09:42:43;31.90;99.90
6355;DHT22;3210;48.708;9.030;2023-06-26T09:45:18;31.70;99.90
6355;DHT22;3210;48.708;9.030;2023-06-26T09:47:46;31.60;99.90
6355;DHT22;3210;48.708;9.030;2023-06-26T09:50:21;31.60;99.90
6355;DHT22;3210;48.708;9.030;2023-06-26T09:52:50;31.60;99.90
6355;DHT22;3210;48.708;9.030;2023-06-26T09:55:19;31.50;1.00
6355;DHT22;3210;48.708;9.030;2023-06-26T09:57:49;31.30;99.90
6355;DHT22;3210;48.708;9.030;2023-06-26T10:00:17;31.30;99.90
6355;DHT22;3210;48.708;9.030;2023-06-26T10:02:44;31.40;99.90
6355;DHT22;3210;48.708;9.030;2023-06-26T10:05:11;31.60;99.90
6355;DHT22;3210;48.708;9.030;2023-06-26T10:07:39;31.70;99.90
6355;DHT22;3210;48.708;9.030;2023-06-26T10:10:07;31.40;99.90
6355;DHT22;3210;48.708;9.030;2023-06-26T10:12:35;31.10;99.90
6355;DHT22;3210;48.708;9.030;2023-06-26T10:15:03;31.20;99.90
6355;DHT22;3210;48.708;9.030;2023-06-26T10:17:34;31.30;99.90
6355;DHT22;3210;48.708;9.030;2023-06-26T10:20:03;31.00;99.90
6355;DHT22;3210;48.708;9.030;2023-06-26T10:22:36;30.70;99.90
6355;DHT22;3210;48.708;9.030;2023-06-26T10:25:06;30.70;99.90
6355;DHT22;3210;48.708;9.030;2023-06-26T10:27:36;31.10;99.90
6355;DHT22;3210;48.708;9.030;2023-06-26T10:30:09;31.30;99.90
6355;DHT22;3210;48.708;9.030;2023-06-26T10:32:40;31.20;99.90
6355;DHT22;3210;48.708;9.030;2023-06-26T10:35:07;30.80;99.90
6355;DHT22;3210;48.708;9.030;2023-06-26T10:37:41;30.70;99.90
6355;DHT22;3210;48.708;9.030;2023-06-26T10:40:09;30.60;99.90
6355;DHT22;3210;48.708;9.030;2023-06-26T10:42:38;30.60;99.90
6355;DHT22;3210;48.708;9.030;2023-06-26T10:45:14;30.50;99.90
6355;DHT22;3210;48.708;9.030;2023-06-26T10:47:42;30.30;99.90
6355;DHT22;3210;48.708;9.030;2023-06-26T10:50:19;30.50;99.90
6355;DHT22;3210;48.708;9.030;2023-06-26T10:53:07;30.60;99.90
6355;DHT22;3210;48.708;9.030;2023-06-26T10:55:34;30.60;99.90
6355;DHT22;3210;48.708;9.030;2023-06-26T10:58:02;30.80;99.90
6355;DHT22;3210;48.708;9.030;2023-06-26T11:00:30;30.60;99.90
6355;DHT22;3210;48.708;9.030;2023-06-26T11:02:57;30.80;99.90
6355;DHT22;3210;48.708;9.030;2023-06-26T11:05:27;30.90;99.90
6355;DHT22;3210;48.708;9.030;2023-06-26T11:08:04;30.60;99.90
6355;DHT22;3210;48.708;9.030;2023-06-26T11:10:50;30.40;99.90
6355;DHT22;3210;48.708;9.030;2023-06-26T11:13:18;30.20;99.90
6355;DHT22;3210;48.708;9.030;2023-06-26T11:15:47;29.90;99.90
6355;DHT22;3210;48.708;9.030;2023-06-26T11:18:16;29.60;99.90
6355;DHT22;3210;48.708;9.030;2023-06-26T11:20:42;29.60;99.90
6355;DHT22;3210;48.708;9.030;2023-06-26T11:23:09;29.70;99.90
6355;DHT22;3210;48.708;9.030;2023-06-26T11:25:37;29.90;99.90
6355;DHT22;3210;48.708;9.030;2023-06-26T11:28:05;30.00;99.90
6355;DHT22;3210;48.708;9.030;2023-06-26T11:30:32;29.90;99.90
6355;DHT22;3210;48.708;9.030;2023-06-26T11:33:08;29.70;99.90
6355;DHT22;3210;48.708;9.030;2023-06-26T11:35:35;29.50;99.90
6355;DHT22;3210;48.708;9.030;2023-06-26T11:38:04;29.60;99.90
6355;DHT22;3210;48.708;9.030;2023-06-26T11:40:31;29.90;99.90
6355;DHT22;3210;48.708;9.030;2023-06-26T11:42:58;30.10;99.90
6355;DHT22;3210;48.708;9.030;2023-06-26T11:45:25;30.20;99.90
6355;DHT22;3210;48.708;9.030;2023-06-26T11:47:54;30.30;99.90
6355;DHT22;3210;48.708;9.030;2023-06-26T11:50:23;30.00;99.90
6355;DHT22;3210;48.708;9.030;2023-06-26T11:52:53;30.10;1.00
6355;DHT22;3210;48.708;9.030;2023-06-26T11:55:21;30.30;99.90
6355;DHT22;3210;48.708;9.030;2023-06-26T11:57:48;30.90;99.90
6355;DHT22;3210;48.708;9.030;2023-06-26T12:00:16;31.10;99.90
6355;DHT22;3210;48.708;9.030;2023-06-26T12:02:44;31.00;99.90
6355;DHT22;3210;48.708;9.030;2023-06-26T12:05:12;30.70;1.00
6355;DHT22;3210;48.708;9.030;2023-06-26T12:07:41;30.90;99.90
6355;DHT22;3210;48.708;9.030;2023-06-26T12:10:09;30.70;99.90
6355;DHT22;3210;48.708;9.030;2023-06-26T12:12:37;30.60;99.90
6355;DHT22;3210;48.708;9.030;2023-06-26T12:15:06;30.70;99.90
6355;DHT22;3210;48.708;9.030;2023-06-26T12:17:33;30.90;99.90
6355;DHT22;3210;48.708;9.030;2023-06-26T12:20:03;31.00;99.90
6355;DHT22;3210;48.708;9.030;2023-06-26T12:22:34;31.10;99.90
6355;DHT22;3210;48.708;9.030;2023-06-26T12:25:02;31.00;99.90
6355;DHT22;3210;48.708;9.030;2023-06-26T12:27:29;30.90;99.90
6355;DHT22;3210;48.708;9.030;2023-06-26T12:29:57;30.80;99.90
6355;DHT22;3210;48.708;9.030;2023-06-26T12:32:24;30.70;99.90
6355;DHT22;3210;48.708;9.030;2023-06-26T12:34:51;30.60;99.90
6355;DHT22;3210;48.708;9.030;2023-06-26T12:37:19;30.30;99.90
6355;DHT22;3210;48.708;9.030;2023-06-26T12:39:47;30.20;99.90
6355;DHT22;3210;48.708;9.030;2023-06-26T12:42:16;30.50;1.00
6355;DHT22;3210;48.708;9.030;2023-06-26T12:44:43;30.90;1.00
6355;DHT22;3210;48.708;9.030;2023-06-26T12:47:10;31.20;1.00
6355;DHT22;3210;48.708;9.030;2023-06-26T12:49:40;31.20;1.00
6355;DHT22;3210;48.708;9.030;2023-06-26T12:52:08;31.00;1.00
6355;DHT22;3210;48.708;9.030;2023-06-26T12:54:36;31.00;1.00
6355;DHT22;3210;48.708;9.030;2023-06-26T12:57:03;30.60;1.00
6355;DHT22;3210;48.708;9.030;2023-06-26T12:59:32;30.70;1.00
6355;DHT22;3210;48.708;9.030;2023-06-26T13:01:59;30.60;1.00
6355;DHT22;3210;48.708;9.030;2023-06-26T13:04:28;30.70;1.00
6355;DHT22;3210;48.708;9.030;2023-06-26T13:06:55;31.00;1.00
6355;DHT22;3210;48.708;9.030;2023-06-26T13:09:22;31.10;1.00
6355;DHT22;3210;48.708;9.030;2023-06-26T13:11:50;31.10;99.90
6355;DHT22;3210;48.708;9.030;2023-06-26T13:14:17;31.10;99.90
6355;DHT22;3210;48.708;9.030;2023-06-26T13:16:46;30.80;99.90
6355;DHT22;3210;48.708;9.030;2023-06-26T13:19:13;30.80;99.90
6355;DHT22;3210;48.708;9.030;2023-06-26T13:21:39;30.70;1.00
6355;DHT22;3210;48.708;9.030;2023-06-26T13:24:07;30.80;99.90
6355;DHT22;3210;48.708;9.030;2023-06-26T13:26:35;30.70;99.90
6355;DHT22;3210;48.708;9.030;2023-06-26T13:29:02;31.00;99.90
6355;DHT22;3210;48.708;9.030;2023-06-26T13:31:29;31.10;99.90
6355;DHT22;3210;48.708;9.030;2023-06-26T13:33:58;30.90;99.90
6355;DHT22;3210;48.708;9.030;2023-06-26T13:36:25;30.90;99.90
6355;DHT22;3210;48.708;9.030;2023-06-26T13:38:52;30.80;99.90
6355;DHT22;3210;48.708;9.030;2023-06-26T13:41:21;30.60;99.90
6355;DHT22;3210;48.708;9.030;2023-06-26T13:43:48;30.30;99.90
6355;DHT22;3210;48.708;9.030;2023-06-26T13:46:15;30.20;99.90
6355;DHT22;3210;48.708;9.030;2023-06-26T13:48:42;30.30;1.00
6355;DHT22;3210;48.708;9.030;2023-06-26T13:51:10;30.30;99.90
6355;DHT22;3210;48.708;9.030;2023-06-26T13:53:37;30.40;99.90
6355;DHT22;3210;48.708;9.030;2023-06-26T13:56:04;30.00;99.90
6355;DHT22;3210;48.708;9.030;2023-06-26T13:58:31;30.00;99.90
6355;DHT22;3210;48.708;9.030;2023-06-26T14:00:59;30.20;99.90
6355;DHT22;3210;48.708;9.030;2023-06-26T14:03:26;30.30;99.90
6355;DHT22;3210;48.708;9.030;2023-06-26T14:05:54;30.30;99.90
6355;DHT22;3210;48.708;9.030;2023-06-26T14:08:22;30.10;99.90
6355;DHT22;3210;48.708;9.030;2023-06-26T14:10:49;30.20;99.90
6355;DHT22;3210;48.708;9.030;2023-06-26T14:13:16;30.50;99.90
6355;DHT22;3210;48.708;9.030;2023-06-26T14:15:43;30.40;99.90
6355;DHT22;3210;48.708;9.030;2023-06-26T14:18:09;30.20;99.90
6355;DHT22;3210;48.708;9.030;2023-06-26T14:20:36;30.20;99.90
6355;DHT22;3210;48.708;9.030;2023-06-26T14:23:03;30.20;99.90
6355;DHT22;3210;48.708;9.030;2023-06-26T14:25:31;30.30;99.90
6355;DHT22;3210;48.708;9.030;2023-06-26T14:27:58;30.30;99.90
6355;DHT22;3210;48.708;9.030;2023-06-26T14:30:25;30.10;99.90
6355;DHT22;3210;48.708;9.030;2023-06-26T14:32:54;29.80;1.00
6355;DHT22;3210;48.708;9.030;2023-06-26T14:35:21;29.80;99.90
6355;DHT22;3210;48.708;9.030;2023-06-26T14:37:48;30.00;99.90
6355;DHT22;3210;48.708;9.030;2023-06-26T14:40:15;29.70;99.90
6355;DHT22;3210;48.708;9.030;2023-06-26T14:42:43;29.60;99.90
6355;DHT22;3210;48.708;9.030;2023-06-26T14:45:11;29.60;99.90
6355;DHT22;3210;48.708;9.030;2023-06-26T14:47:37;29.40;99.90
6355;DHT22;3210;48.708;9.030;2023-06-26T14:50:05;29.40;99.90
6355;DHT22;3210;48.708;9.030;2023-06-26T14:52:32;29.20;99.90
6355;DHT22;3210;48.708;9.030;2023-06-26T14:54:59;29.30;99.90
6355;DHT22;3210;48.708;9.030;2023-06-26T14:57:26;29.50;99.90
6355;DHT22;3210;48.708;9.030;2023-06-26T14:59:54;29.90;99.90
6355;DHT22;3210;48.708;9.030;2023-06-26T15:02:21;29.90;99.90
6355;DHT22;3210;48.708;9.030;2023-06-26T15:04:48;29.40;99.90
6355;DHT22;3210;48.708;9.030;2023-06-26T15:07:14;29.30;99.90
6355;DHT22;3210;48.708;9.030;2023-06-26T15:09:41;29.00;99.90
6355;DHT22;3210;48.708;9.030;2023-06-26T15:12:08;29.40;99.90
6355;DHT22;3210;48.708;9.030;2023-06-26T15:14:35;29.40;99.90
6355;DHT22;3210;48.708;9.030;2023-06-26T15:17:04;28.80;99.90
6355;DHT22;3210;48.708;9.030;2023-06-26T15:19:30;28.60;99.90
6355;DHT22;3210;48.708;9.030;2023-06-26T15:21:57;29.10;99.90
6355;DHT22;3210;48.708;9.030;2023-06-26T15:24:24;28.80;99.90
6355;DHT22;3210;48.708;9.030;2023-06-26T15:26:51;28.90;99.90
6355;DHT22;3210;48.708;9.030;2023-06-26T15:29:18;29.00;99.90
6355;DHT22;3210;48.708;9.030;2023-06-26T15:31:44;29.00;99.90
6355;DHT22;3210;48.708;9.030;2023-06-26T15:34:13;28.80;99.90
6355;DHT22;3210;48.708;9.030;2023-06-26T15:36:39;28.70;99.90
6355;DHT22;3210;48.708;9.030;2023-06-26T15:39:06;28.50;99.90
6355;DHT22;3210;48.708;9.030;2023-06-26T15:41:33;28.30;99.90
6355;DHT22;3210;48.708;9.030;2023-06-26T15:44:02;28.10;99.90
6355;DHT22;3210;48.708;9.030;2023-06-26T15:46:29;28.00;99.90
6355;DHT22;3210;48.708;9.030;2023-06-26T15:48:56;27.80;99.90
6355;DHT22;3210;48.708;9.030;2023-06-26T15:51:24;27.90;99.90
6355;DHT22;3210;48.708;9.030;2023-06-26T15:53:51;27.80;99.90
6355;DHT22;3210;48.708;9.030;2023-06-26T15:56:18;27.70;99.90
6355;DHT22;3210;48.708;9.030;2023-06-26T15:58:45;27.40;99.90
6355;DHT22;3210;48.708;9.030;2023-06-26T16:01:14;27.30;99.90
6355;DHT22;3210;48.708;9.030;2023-06-26T16:03:41;27.20;99.90
6355;DHT22;3210;48.708;9.030;2023-06-26T16:06:09;27.40;99.90
6355;DHT22;3210;48.708;9.030;2023-06-26T16:08:37;27.50;99.90
6355;DHT22;3210;48.708;9.030;2023-06-26T16:11:05;27.30;99.90
6355;DHT22;3210;48.708;9.030;2023-06-26T16:13:32;27.30;99.90
6355;DHT22;3210;48.708;9.030;2023-06-26T16:15:59;27.20;99.90